sensor_id;sensor_type;location;lat;lon;timestamp;P1;durP1;ratioP1;P2;durP2;ratioP2
58516;SDS011;44308;50.810;0.284;2022-10-22T00:00:54;16.42;;;4.15;;
58516;SDS011;44308;50.810;0.284;2022-10-22T00:03:20;24.85;;;4.75;;
58516;SDS011;44308;50.810;0.284;2022-10-22T00:05:46;17.58;;;4.43;;
58516;SDS011;44308;50.810;0.284;2022-10-22T00:08:12;20.67;;;4.45;;
58516;SDS011;44308;50.810;0.284;2022-10-22T00:10:38;19.35;;;5.25;;
58516;SDS011;44308;50.810;0.284;2022-10-22T00:13:04;36.03;;;6.90;;
58516;SDS011;44308;50.810;0.284;2022-10-22T00:15:30;34.25;;;6.40;;
58516;SDS011;44308;50.810;0.284;2022-10-22T00:17:55;33.35;;;6.18;;
58516;SDS011;44308;50.810;0.284;2022-10-22T00:20:21;35.05;;;6.95;;
58516;SDS011;44308;50.810;0.284;2022-10-22T00:22:47;33.75;;;6.75;;
58516;SDS011;44308;50.810;0.284;2022-10-22T00:25:13;26.48;;;6.90;;
58516;SDS011;44308;50.810;0.284;2022-10-22T00:27:39;49.55;;;8.55;;
58516;SDS011;44308;50.810;0.284;2022-10-22T00:30:05;24.17;;;6.05;;
58516;SDS011;44308;50.810;0.284;2022-10-22T00:32:31;30.63;;;5.88;;
58516;SDS011;44308;50.810;0.284;2022-10-22T00:34:57;35.08;;;5.35;;
58516;SDS011;44308;50.810;0.284;2022-10-22T00:37:22;20.92;;;4.93;;
58516;SDS011;44308;50.810;0.284;2022-10-22T00:39:48;21.80;;;4.15;;
58516;SDS011;44308;50.810;0.284;2022-10-22T00:42:15;20.83;;;4.32;;
58516;SDS011;44308;50.810;0.284;2022-10-22T00:45:00;32.28;;;5.30;;
58516;SDS011;44308;50.810;0.284;2022-10-22T00:47:31;22.63;;;5.28;;
58516;SDS011;44308;50.810;0.284;2022-10-22T00:49:58;39.55;;;5.75;;
58516;SDS011;44308;50.810;0.284;2022-10-22T00:52:24;17.27;;;4.68;;
58516;SDS011;44308;50.810;0.284;2022-10-22T00:54:51;32.45;;;6.80;;
58516;SDS011;44308;50.810;0.284;2022-10-22T00:57:17;36.83;;;7.00;;
58516;SDS011;44308;50.810;0.284;2022-10-22T00:59:44;42.72;;;6.28;;
58516;SDS011;44308;50.810;0.284;2022-10-22T01:02:10;35.08;;;5.78;;
58516;SDS011;44308;50.810;0.284;2022-10-22T01:04:36;40.47;;;6.35;;
58516;SDS011;44308;50.810;0.284;2022-10-22T01:07:02;30.98;;;5.80;;
58516;SDS011;44308;50.810;0.284;2022-10-22T01:09:41;24.35;;;5.80;;
58516;SDS011;44308;50.810;0.284;2022-10-22T01:12:39;29.35;;;5.68;;
58516;SDS011;44308;50.810;0.284;2022-10-22T01:15:14;26.75;;;6.10;;
58516;SDS011;44308;50.810;0.284;2022-10-22T01:17:57;42.25;;;5.75;;
58516;SDS011;44308;50.810;0.284;2022-10-22T01:23:15;26.15;;;5.35;;
58516;SDS011;44308;50.810;0.284;2022-10-22T01:31:28;28.42;;;5.68;;
58516;SDS011;44308;50.810;0.284;2022-10-22T01:33:56;31.58;;;6.93;;
58516;SDS011;44308;50.810;0.284;2022-10-22T01:36:26;32.05;;;6.85;;
58516;SDS011;44308;50.810;0.284;2022-10-22T01:38:54;27.48;;;6.75;;
58516;SDS011;44308;50.810;0.284;2022-10-22T01:41:22;39.05;;;6.00;;
58516;SDS011;44308;50.810;0.284;2022-10-22T01:43:48;26.52;;;5.88;;
58516;SDS011;44308;50.810;0.284;2022-10-22T01:46:21;18.48;;;5.63;;
58516;SDS011;44308;50.810;0.284;2022-10-22T01:54:26;21.20;;;5.03;;
58516;SDS011;44308;50.810;0.284;2022-10-22T01:57:21;19.45;;;4.72;;
58516;SDS011;44308;50.810;0.284;2022-10-22T02:00:00;22.95;;;5.78;;
58516;SDS011;44308;50.810;0.284;2022-10-22T02:05:25;16.55;;;4.43;;
58516;SDS011;44308;50.810;0.284;2022-10-22T02:08:05;41.08;;;6.18;;
58516;SDS011;44308;50.810;0.284;2022-10-22T02:10:38;30.60;;;5.30;;
58516;SDS011;44308;50.810;0.284;2022-10-22T02:13:09;23.75;;;5.80;;
58516;SDS011;44308;50.810;0.284;2022-10-22T02:15:39;34.50;;;5.55;;
58516;SDS011;44308;50.810;0.284;2022-10-22T02:18:08;24.52;;;5.55;;
58516;SDS011;44308;50.810;0.284;2022-10-22T02:20:34;24.50;;;5.75;;
58516;SDS011;44308;50.810;0.284;2022-10-22T02:23:03;25.27;;;5.80;;
58516;SDS011;44308;50.810;0.284;2022-10-22T02:25:30;30.27;;;6.18;;
58516;SDS011;44308;50.810;0.284;2022-10-22T02:30:47;21.52;;;5.50;;
58516;SDS011;44308;50.810;0.284;2022-10-22T02:33:29;25.75;;;5.78;;
58516;SDS011;44308;50.810;0.284;2022-10-22T02:35:58;22.85;;;5.13;;
58516;SDS011;44308;50.810;0.284;2022-10-22T02:38:26;21.70;;;4.80;;
58516;SDS011;44308;50.810;0.284;2022-10-22T02:40:53;26.40;;;4.68;;
58516;SDS011;44308;50.810;0.284;2022-10-22T02:43:19;23.05;;;3.90;;
58516;SDS011;44308;50.810;0.284;2022-10-22T02:45:45;16.15;;;4.25;;
58516;SDS011;44308;50.810;0.284;2022-10-22T02:48:14;15.48;;;4.15;;
58516;SDS011;44308;50.810;0.284;2022-10-22T02:50:39;13.07;;;3.88;;
58516;SDS011;44308;50.810;0.284;2022-10-22T02:53:05;25.45;;;4.82;;
58516;SDS011;44308;50.810;0.284;2022-10-22T02:55:31;18.40;;;4.78;;
58516;SDS011;44308;50.810;0.284;2022-10-22T02:57:56;26.25;;;4.72;;
58516;SDS011;44308;50.810;0.284;2022-10-22T03:00:22;26.08;;;5.43;;
58516;SDS011;44308;50.810;0.284;2022-10-22T03:02:48;23.42;;;4.80;;
58516;SDS011;44308;50.810;0.284;2022-10-22T03:05:13;19.13;;;5.10;;
58516;SDS011;44308;50.810;0.284;2022-10-22T03:07:39;29.08;;;6.20;;
58516;SDS011;44308;50.810;0.284;2022-10-22T03:10:05;25.90;;;5.88;;
58516;SDS011;44308;50.810;0.284;2022-10-22T03:12:31;36.72;;;7.25;;
58516;SDS011;44308;50.810;0.284;2022-10-22T03:14:57;29.80;;;5.50;;
58516;SDS011;44308;50.810;0.284;2022-10-22T03:17:22;29.50;;;6.40;;
58516;SDS011;44308;50.810;0.284;2022-10-22T03:19:48;29.48;;;6.70;;
58516;SDS011;44308;50.810;0.284;2022-10-22T03:22:15;21.27;;;5.65;;
58516;SDS011;44308;50.810;0.284;2022-10-22T03:24:45;29.75;;;5.72;;
58516;SDS011;44308;50.810;0.284;2022-10-22T03:27:14;27.60;;;6.18;;
58516;SDS011;44308;50.810;0.284;2022-10-22T03:29:42;29.35;;;6.07;;
58516;SDS011;44308;50.810;0.284;2022-10-22T03:32:08;30.40;;;5.95;;
58516;SDS011;44308;50.810;0.284;2022-10-22T03:34:34;30.67;;;6.57;;
58516;SDS011;44308;50.810;0.284;2022-10-22T03:37:00;26.83;;;5.65;;
58516;SDS011;44308;50.810;0.284;2022-10-22T03:39:27;28.70;;;5.90;;
58516;SDS011;44308;50.810;0.284;2022-10-22T03:41:55;46.83;;;6.07;;
58516;SDS011;44308;50.810;0.284;2022-10-22T03:44:22;21.15;;;5.75;;
58516;SDS011;44308;50.810;0.284;2022-10-22T03:46:48;22.60;;;5.78;;
58516;SDS011;44308;50.810;0.284;2022-10-22T03:49:14;31.88;;;6.50;;
58516;SDS011;44308;50.810;0.284;2022-10-22T03:51:39;29.67;;;6.13;;
58516;SDS011;44308;50.810;0.284;2022-10-22T03:54:05;29.00;;;6.25;;
58516;SDS011;44308;50.810;0.284;2022-10-22T03:56:31;46.38;;;7.00;;
58516;SDS011;44308;50.810;0.284;2022-10-22T03:58:57;46.70;;;6.22;;
58516;SDS011;44308;50.810;0.284;2022-10-22T04:01:25;23.05;;;6.25;;
58516;SDS011;44308;50.810;0.284;2022-10-22T04:03:51;33.28;;;6.32;;
58516;SDS011;44308;50.810;0.284;2022-10-22T04:06:17;30.63;;;6.63;;
58516;SDS011;44308;50.810;0.284;2022-10-22T04:08:44;28.70;;;6.13;;
58516;SDS011;44308;50.810;0.284;2022-10-22T04:11:10;27.65;;;6.53;;
58516;SDS011;44308;50.810;0.284;2022-10-22T04:13:37;32.70;;;6.47;;
58516;SDS011;44308;50.810;0.284;2022-10-22T04:16:13;35.53;;;6.07;;
58516;SDS011;44308;50.810;0.284;2022-10-22T04:18:41;25.10;;;5.97;;
58516;SDS011;44308;50.810;0.284;2022-10-22T04:21:08;21.20;;;6.20;;
58516;SDS011;44308;50.810;0.284;2022-10-22T04:23:35;29.00;;;7.05;;
58516;SDS011;44308;50.810;0.284;2022-10-22T04:26:03;36.60;;;6.82;;
58516;SDS011;44308;50.810;0.284;2022-10-22T04:28:30;38.60;;;7.47;;
58516;SDS011;44308;50.810;0.284;2022-10-22T04:30:56;27.27;;;6.32;;
58516;SDS011;44308;50.810;0.284;2022-10-22T04:33:22;29.20;;;6.47;;
58516;SDS011;44308;50.810;0.284;2022-10-22T04:35:48;25.65;;;7.13;;
58516;SDS011;44308;50.810;0.284;2022-10-22T04:38:14;39.38;;;6.78;;
58516;SDS011;44308;50.810;0.284;2022-10-22T04:40:40;39.35;;;7.43;;
58516;SDS011;44308;50.810;0.284;2022-10-22T04:43:06;29.88;;;6.25;;
58516;SDS011;44308;50.810;0.284;2022-10-22T04:45:32;32.28;;;6.45;;
58516;SDS011;44308;50.810;0.284;2022-10-22T04:47:58;29.15;;;6.00;;
58516;SDS011;44308;50.810;0.284;2022-10-22T04:50:24;24.60;;;5.70;;
58516;SDS011;44308;50.810;0.284;2022-10-22T04:52:50;33.60;;;5.55;;
58516;SDS011;44308;50.810;0.284;2022-10-22T04:55:15;18.20;;;5.05;;
58516;SDS011;44308;50.810;0.284;2022-10-22T04:57:41;20.58;;;5.32;;
58516;SDS011;44308;50.810;0.284;2022-10-22T05:00:07;22.15;;;5.43;;
58516;SDS011;44308;50.810;0.284;2022-10-22T05:02:33;54.80;;;6.18;;
58516;SDS011;44308;50.810;0.284;2022-10-22T05:04:59;27.63;;;5.85;;
58516;SDS011;44308;50.810;0.284;2022-10-22T05:07:24;36.10;;;6.50;;
58516;SDS011;44308;50.810;0.284;2022-10-22T05:09:50;19.13;;;4.90;;
58516;SDS011;44308;50.810;0.284;2022-10-22T05:12:17;20.73;;;5.82;;
58516;SDS011;44308;50.810;0.284;2022-10-22T05:14:43;25.65;;;5.07;;
58516;SDS011;44308;50.810;0.284;2022-10-22T05:17:08;26.35;;;5.68;;
58516;SDS011;44308;50.810;0.284;2022-10-22T05:19:35;28.33;;;6.50;;
58516;SDS011;44308;50.810;0.284;2022-10-22T05:22:02;22.63;;;5.07;;
58516;SDS011;44308;50.810;0.284;2022-10-22T05:24:29;29.95;;;5.22;;
58516;SDS011;44308;50.810;0.284;2022-10-22T05:26:57;21.25;;;6.30;;
58516;SDS011;44308;50.810;0.284;2022-10-22T05:29:23;35.03;;;6.57;;
58516;SDS011;44308;50.810;0.284;2022-10-22T05:31:49;19.77;;;5.30;;
58516;SDS011;44308;50.810;0.284;2022-10-22T05:34:15;25.17;;;5.57;;
58516;SDS011;44308;50.810;0.284;2022-10-22T05:36:41;28.33;;;4.97;;
58516;SDS011;44308;50.810;0.284;2022-10-22T05:39:07;35.45;;;6.68;;
58516;SDS011;44308;50.810;0.284;2022-10-22T05:41:33;24.35;;;5.88;;
58516;SDS011;44308;50.810;0.284;2022-10-22T05:44:00;24.05;;;5.43;;
58516;SDS011;44308;50.810;0.284;2022-10-22T05:46:26;33.20;;;5.97;;
58516;SDS011;44308;50.810;0.284;2022-10-22T05:48:54;25.25;;;4.95;;
58516;SDS011;44308;50.810;0.284;2022-10-22T05:51:25;21.77;;;4.78;;
58516;SDS011;44308;50.810;0.284;2022-10-22T05:53:53;18.63;;;5.13;;
58516;SDS011;44308;50.810;0.284;2022-10-22T05:56:20;26.00;;;5.35;;
58516;SDS011;44308;50.810;0.284;2022-10-22T05:58:46;24.35;;;5.40;;
58516;SDS011;44308;50.810;0.284;2022-10-22T06:03:43;19.27;;;5.50;;
58516;SDS011;44308;50.810;0.284;2022-10-22T06:08:41;26.90;;;6.20;;
58516;SDS011;44308;50.810;0.284;2022-10-22T06:11:06;20.67;;;5.43;;
58516;SDS011;44308;50.810;0.284;2022-10-22T06:13:32;34.97;;;6.07;;
58516;SDS011;44308;50.810;0.284;2022-10-22T06:15:58;27.67;;;4.90;;
58516;SDS011;44308;50.810;0.284;2022-10-22T06:18:23;29.35;;;5.25;;
58516;SDS011;44308;50.810;0.284;2022-10-22T06:20:49;28.67;;;6.00;;
58516;SDS011;44308;50.810;0.284;2022-10-22T06:23:15;20.67;;;4.75;;
58516;SDS011;44308;50.810;0.284;2022-10-22T06:25:41;18.00;;;5.20;;
58516;SDS011;44308;50.810;0.284;2022-10-22T06:28:07;25.08;;;5.43;;
58516;SDS011;44308;50.810;0.284;2022-10-22T06:30:35;17.15;;;4.63;;
58516;SDS011;44308;50.810;0.284;2022-10-22T06:33:01;20.98;;;5.35;;
58516;SDS011;44308;50.810;0.284;2022-10-22T06:35:27;26.38;;;5.57;;
58516;SDS011;44308;50.810;0.284;2022-10-22T06:37:53;21.30;;;5.57;;
58516;SDS011;44308;50.810;0.284;2022-10-22T06:40:19;25.52;;;6.47;;
58516;SDS011;44308;50.810;0.284;2022-10-22T06:42:45;23.50;;;4.60;;
58516;SDS011;44308;50.810;0.284;2022-10-22T06:45:10;22.42;;;5.43;;
58516;SDS011;44308;50.810;0.284;2022-10-22T06:47:36;28.42;;;5.38;;
58516;SDS011;44308;50.810;0.284;2022-10-22T06:50:02;15.50;;;4.82;;
58516;SDS011;44308;50.810;0.284;2022-10-22T06:52:28;25.38;;;5.53;;
58516;SDS011;44308;50.810;0.284;2022-10-22T06:54:53;22.00;;;4.78;;
58516;SDS011;44308;50.810;0.284;2022-10-22T06:57:19;16.60;;;4.30;;
58516;SDS011;44308;50.810;0.284;2022-10-22T06:59:45;20.50;;;5.10;;
58516;SDS011;44308;50.810;0.284;2022-10-22T07:02:11;29.63;;;5.20;;
58516;SDS011;44308;50.810;0.284;2022-10-22T07:04:36;22.67;;;4.90;;
58516;SDS011;44308;50.810;0.284;2022-10-22T07:07:02;17.25;;;4.53;;
58516;SDS011;44308;50.810;0.284;2022-10-22T07:09:28;23.67;;;5.30;;
58516;SDS011;44308;50.810;0.284;2022-10-22T07:11:53;21.25;;;4.28;;
58516;SDS011;44308;50.810;0.284;2022-10-22T07:14:19;35.55;;;6.65;;
58516;SDS011;44308;50.810;0.284;2022-10-22T07:16:45;27.88;;;5.63;;
58516;SDS011;44308;50.810;0.284;2022-10-22T07:19:11;18.65;;;5.65;;
58516;SDS011;44308;50.810;0.284;2022-10-22T07:21:37;34.20;;;5.97;;
58516;SDS011;44308;50.810;0.284;2022-10-22T07:24:03;22.85;;;5.72;;
58516;SDS011;44308;50.810;0.284;2022-10-22T07:26:28;26.17;;;5.72;;
58516;SDS011;44308;50.810;0.284;2022-10-22T07:28:56;26.55;;;5.40;;
58516;SDS011;44308;50.810;0.284;2022-10-22T07:31:25;32.80;;;5.75;;
58516;SDS011;44308;50.810;0.284;2022-10-22T07:33:51;26.52;;;5.68;;
58516;SDS011;44308;50.810;0.284;2022-10-22T07:36:17;20.67;;;5.03;;
58516;SDS011;44308;50.810;0.284;2022-10-22T07:38:47;22.17;;;5.93;;
58516;SDS011;44308;50.810;0.284;2022-10-22T07:41:14;26.42;;;5.60;;
58516;SDS011;44308;50.810;0.284;2022-10-22T07:43:41;25.23;;;5.68;;
58516;SDS011;44308;50.810;0.284;2022-10-22T07:46:07;17.30;;;4.43;;
58516;SDS011;44308;50.810;0.284;2022-10-22T07:48:33;33.72;;;5.60;;
58516;SDS011;44308;50.810;0.284;2022-10-22T07:51:00;17.52;;;5.13;;
58516;SDS011;44308;50.810;0.284;2022-10-22T07:53:26;21.80;;;4.85;;
58516;SDS011;44308;50.810;0.284;2022-10-22T07:55:51;24.30;;;5.10;;
58516;SDS011;44308;50.810;0.284;2022-10-22T07:58:18;15.70;;;4.80;;
58516;SDS011;44308;50.810;0.284;2022-10-22T08:00:45;23.50;;;5.18;;
58516;SDS011;44308;50.810;0.284;2022-10-22T08:03:12;25.67;;;4.72;;
58516;SDS011;44308;50.810;0.284;2022-10-22T08:05:39;19.77;;;5.18;;
58516;SDS011;44308;50.810;0.284;2022-10-22T08:08:07;24.15;;;4.97;;
58516;SDS011;44308;50.810;0.284;2022-10-22T08:10:34;24.17;;;5.22;;
58516;SDS011;44308;50.810;0.284;2022-10-22T08:13:00;25.98;;;4.63;;
58516;SDS011;44308;50.810;0.284;2022-10-22T08:15:26;25.33;;;4.90;;
58516;SDS011;44308;50.810;0.284;2022-10-22T08:17:51;36.22;;;5.63;;
58516;SDS011;44308;50.810;0.284;2022-10-22T08:20:17;24.27;;;5.00;;
58516;SDS011;44308;50.810;0.284;2022-10-22T08:22:44;21.13;;;5.82;;
58516;SDS011;44308;50.810;0.284;2022-10-22T08:25:10;22.52;;;4.88;;
58516;SDS011;44308;50.810;0.284;2022-10-22T08:27:36;23.55;;;5.32;;
58516;SDS011;44308;50.810;0.284;2022-10-22T08:30:02;24.13;;;5.20;;
58516;SDS011;44308;50.810;0.284;2022-10-22T08:32:29;17.33;;;4.30;;
58516;SDS011;44308;50.810;0.284;2022-10-22T08:34:56;29.00;;;5.45;;
58516;SDS011;44308;50.810;0.284;2022-10-22T08:37:21;26.50;;;5.18;;
58516;SDS011;44308;50.810;0.284;2022-10-22T08:39:47;31.63;;;5.70;;
58516;SDS011;44308;50.810;0.284;2022-10-22T08:48:36;27.30;;;5.25;;
58516;SDS011;44308;50.810;0.284;2022-10-22T08:51:06;24.27;;;5.03;;
58516;SDS011;44308;50.810;0.284;2022-10-22T08:53:40;18.92;;;4.93;;
58516;SDS011;44308;50.810;0.284;2022-10-22T08:56:16;35.05;;;5.45;;
58516;SDS011;44308;50.810;0.284;2022-10-22T08:58:45;18.65;;;4.93;;
58516;SDS011;44308;50.810;0.284;2022-10-22T09:01:41;19.42;;;5.07;;
58516;SDS011;44308;50.810;0.284;2022-10-22T09:04:35;14.60;;;4.32;;
58516;SDS011;44308;50.810;0.284;2022-10-22T09:07:07;41.13;;;5.70;;
58516;SDS011;44308;50.810;0.284;2022-10-22T09:09:35;21.88;;;4.65;;
58516;SDS011;44308;50.810;0.284;2022-10-22T09:12:06;26.00;;;5.13;;
58516;SDS011;44308;50.810;0.284;2022-10-22T09:14:34;16.77;;;4.50;;
58516;SDS011;44308;50.810;0.284;2022-10-22T09:27:42;12.63;;;3.78;;
58516;SDS011;44308;50.810;0.284;2022-10-22T09:30:15;13.02;;;4.07;;
58516;SDS011;44308;50.810;0.284;2022-10-22T09:32:42;12.10;;;3.95;;
58516;SDS011;44308;50.810;0.284;2022-10-22T09:35:12;16.35;;;3.97;;
58516;SDS011;44308;50.810;0.284;2022-10-22T09:37:49;17.13;;;3.95;;
58516;SDS011;44308;50.810;0.284;2022-10-22T09:40:18;18.85;;;4.35;;
58516;SDS011;44308;50.810;0.284;2022-10-22T09:42:46;16.13;;;4.50;;
58516;SDS011;44308;50.810;0.284;2022-10-22T09:45:20;14.20;;;4.03;;
58516;SDS011;44308;50.810;0.284;2022-10-22T09:47:49;15.73;;;4.07;;
58516;SDS011;44308;50.810;0.284;2022-10-22T09:50:28;16.65;;;4.03;;
58516;SDS011;44308;50.810;0.284;2022-10-22T09:55:39;13.05;;;4.25;;
58516;SDS011;44308;50.810;0.284;2022-10-22T09:58:10;25.80;;;5.60;;
58516;SDS011;44308;50.810;0.284;2022-10-22T10:00:38;22.52;;;4.55;;
58516;SDS011;44308;50.810;0.284;2022-10-22T10:03:05;24.20;;;4.28;;
58516;SDS011;44308;50.810;0.284;2022-10-22T10:05:32;20.02;;;5.20;;
58516;SDS011;44308;50.810;0.284;2022-10-22T10:08:10;12.82;;;3.47;;
58516;SDS011;44308;50.810;0.284;2022-10-22T10:16:09;14.70;;;4.22;;
58516;SDS011;44308;50.810;0.284;2022-10-22T10:18:50;18.23;;;4.20;;
58516;SDS011;44308;50.810;0.284;2022-10-22T10:27:21;12.55;;;4.13;;
58516;SDS011;44308;50.810;0.284;2022-10-22T10:30:16;16.25;;;4.25;;
58516;SDS011;44308;50.810;0.284;2022-10-22T10:40:35;17.60;;;5.03;;
58516;SDS011;44308;50.810;0.284;2022-10-22T10:43:20;15.65;;;4.75;;
58516;SDS011;44308;50.810;0.284;2022-10-22T10:48:47;16.67;;;4.28;;
58516;SDS011;44308;50.810;0.284;2022-10-22T10:56:40;22.17;;;4.63;;
58516;SDS011;44308;50.810;0.284;2022-10-22T11:13:10;16.80;;;4.25;;
58516;SDS011;44308;50.810;0.284;2022-10-22T11:15:51;28.10;;;5.03;;
58516;SDS011;44308;50.810;0.284;2022-10-22T11:18:34;12.13;;;3.55;;
58516;SDS011;44308;50.810;0.284;2022-10-22T11:21:07;16.75;;;4.60;;
58516;SDS011;44308;50.810;0.284;2022-10-22T11:23:47;16.42;;;3.97;;
58516;SDS011;44308;50.810;0.284;2022-10-22T11:26:43;29.75;;;5.30;;
58516;SDS011;44308;50.810;0.284;2022-10-22T11:29:21;29.05;;;4.75;;
58516;SDS011;44308;50.810;0.284;2022-10-22T11:31:54;13.52;;;4.13;;
58516;SDS011;44308;50.810;0.284;2022-10-22T11:34:30;15.88;;;4.05;;
58516;SDS011;44308;50.810;0.284;2022-10-22T11:37:06;15.07;;;5.00;;
58516;SDS011;44308;50.810;0.284;2022-10-22T11:39:39;20.13;;;4.03;;
58516;SDS011;44308;50.810;0.284;2022-10-22T11:42:11;14.43;;;3.97;;
58516;SDS011;44308;50.810;0.284;2022-10-22T11:44:46;15.75;;;3.85;;
58516;SDS011;44308;50.810;0.284;2022-10-22T11:47:50;18.83;;;4.97;;
58516;SDS011;44308;50.810;0.284;2022-10-22T11:50:50;20.48;;;4.55;;
58516;SDS011;44308;50.810;0.284;2022-10-22T11:53:36;13.70;;;4.43;;
58516;SDS011;44308;50.810;0.284;2022-10-22T11:58:32;25.38;;;5.25;;
58516;SDS011;44308;50.810;0.284;2022-10-22T12:06:14;18.05;;;4.55;;
58516;SDS011;44308;50.810;0.284;2022-10-22T12:11:20;18.25;;;4.38;;
58516;SDS011;44308;50.810;0.284;2022-10-22T12:16:45;19.52;;;4.63;;
58516;SDS011;44308;50.810;0.284;2022-10-22T12:19:16;32.90;;;4.60;;
58516;SDS011;44308;50.810;0.284;2022-10-22T12:21:54;20.27;;;4.90;;
58516;SDS011;44308;50.810;0.284;2022-10-22T12:24:23;22.23;;;4.75;;
58516;SDS011;44308;50.810;0.284;2022-10-22T12:26:50;17.92;;;5.22;;
58516;SDS011;44308;50.810;0.284;2022-10-22T12:29:17;22.30;;;5.57;;
58516;SDS011;44308;50.810;0.284;2022-10-22T12:31:45;27.20;;;5.97;;
58516;SDS011;44308;50.810;0.284;2022-10-22T12:34:15;24.95;;;5.60;;
58516;SDS011;44308;50.810;0.284;2022-10-22T12:36:43;33.97;;;6.00;;
58516;SDS011;44308;50.810;0.284;2022-10-22T12:39:12;18.25;;;4.88;;
58516;SDS011;44308;50.810;0.284;2022-10-22T12:41:41;25.60;;;6.05;;
58516;SDS011;44308;50.810;0.284;2022-10-22T12:44:09;12.50;;;4.47;;
58516;SDS011;44308;50.810;0.284;2022-10-22T12:46:40;14.68;;;4.35;;
58516;SDS011;44308;50.810;0.284;2022-10-22T12:49:10;16.30;;;5.50;;
58516;SDS011;44308;50.810;0.284;2022-10-22T12:51:41;21.42;;;5.68;;
58516;SDS011;44308;50.810;0.284;2022-10-22T12:54:22;22.45;;;4.55;;
58516;SDS011;44308;50.810;0.284;2022-10-22T12:56:53;18.23;;;5.53;;
58516;SDS011;44308;50.810;0.284;2022-10-22T12:59:27;19.15;;;5.30;;
58516;SDS011;44308;50.810;0.284;2022-10-22T13:01:57;22.17;;;5.63;;
58516;SDS011;44308;50.810;0.284;2022-10-22T13:04:36;20.60;;;5.50;;
58516;SDS011;44308;50.810;0.284;2022-10-22T13:09:38;23.17;;;5.38;;
58516;SDS011;44308;50.810;0.284;2022-10-22T13:12:05;22.45;;;5.00;;
58516;SDS011;44308;50.810;0.284;2022-10-22T13:14:36;26.75;;;5.70;;
58516;SDS011;44308;50.810;0.284;2022-10-22T13:17:18;30.02;;;6.00;;
58516;SDS011;44308;50.810;0.284;2022-10-22T13:24:50;25.02;;;6.03;;
58516;SDS011;44308;50.810;0.284;2022-10-22T13:27:16;32.30;;;5.55;;
58516;SDS011;44308;50.810;0.284;2022-10-22T13:29:42;16.83;;;4.70;;
58516;SDS011;44308;50.810;0.284;2022-10-22T13:32:20;17.92;;;4.75;;
58516;SDS011;44308;50.810;0.284;2022-10-22T13:34:54;24.42;;;5.38;;
58516;SDS011;44308;50.810;0.284;2022-10-22T13:37:20;20.35;;;4.70;;
58516;SDS011;44308;50.810;0.284;2022-10-22T13:39:46;29.02;;;4.88;;
58516;SDS011;44308;50.810;0.284;2022-10-22T13:42:12;26.88;;;5.35;;
58516;SDS011;44308;50.810;0.284;2022-10-22T13:44:38;25.85;;;4.57;;
58516;SDS011;44308;50.810;0.284;2022-10-22T13:47:04;20.75;;;5.18;;
58516;SDS011;44308;50.810;0.284;2022-10-22T13:49:41;24.15;;;4.43;;
58516;SDS011;44308;50.810;0.284;2022-10-22T13:52:09;15.38;;;4.55;;
58516;SDS011;44308;50.810;0.284;2022-10-22T13:54:45;18.83;;;5.22;;
58516;SDS011;44308;50.810;0.284;2022-10-22T13:57:10;15.40;;;4.65;;
58516;SDS011;44308;50.810;0.284;2022-10-22T13:59:36;22.55;;;5.45;;
58516;SDS011;44308;50.810;0.284;2022-10-22T14:02:02;21.02;;;5.28;;
58516;SDS011;44308;50.810;0.284;2022-10-22T14:04:32;13.70;;;4.05;;
58516;SDS011;44308;50.810;0.284;2022-10-22T14:07:00;14.02;;;4.10;;
58516;SDS011;44308;50.810;0.284;2022-10-22T14:09:25;16.98;;;4.45;;
58516;SDS011;44308;50.810;0.284;2022-10-22T14:11:51;17.70;;;4.70;;
58516;SDS011;44308;50.810;0.284;2022-10-22T14:14:16;21.27;;;5.35;;
58516;SDS011;44308;50.810;0.284;2022-10-22T14:16:43;17.40;;;5.25;;
58516;SDS011;44308;50.810;0.284;2022-10-22T14:19:11;21.98;;;4.70;;
58516;SDS011;44308;50.810;0.284;2022-10-22T14:21:40;16.08;;;4.53;;
58516;SDS011;44308;50.810;0.284;2022-10-22T14:24:07;17.50;;;4.72;;
58516;SDS011;44308;50.810;0.284;2022-10-22T14:26:34;16.67;;;5.00;;
58516;SDS011;44308;50.810;0.284;2022-10-22T14:29:00;35.78;;;4.40;;
58516;SDS011;44308;50.810;0.284;2022-10-22T14:31:26;18.88;;;4.50;;
58516;SDS011;44308;50.810;0.284;2022-10-22T14:33:52;19.40;;;4.57;;
58516;SDS011;44308;50.810;0.284;2022-10-22T14:36:19;35.67;;;5.13;;
58516;SDS011;44308;50.810;0.284;2022-10-22T14:38:45;15.48;;;4.35;;
58516;SDS011;44308;50.810;0.284;2022-10-22T14:41:22;21.67;;;4.85;;
58516;SDS011;44308;50.810;0.284;2022-10-22T14:43:49;26.15;;;5.32;;
58516;SDS011;44308;50.810;0.284;2022-10-22T14:46:17;31.55;;;5.78;;
58516;SDS011;44308;50.810;0.284;2022-10-22T14:48:43;21.90;;;4.97;;
58516;SDS011;44308;50.810;0.284;2022-10-22T14:51:12;15.85;;;4.03;;
58516;SDS011;44308;50.810;0.284;2022-10-22T14:53:40;22.92;;;5.72;;
58516;SDS011;44308;50.810;0.284;2022-10-22T14:56:10;24.30;;;5.30;;
58516;SDS011;44308;50.810;0.284;2022-10-22T14:58:40;16.33;;;4.70;;
58516;SDS011;44308;50.810;0.284;2022-10-22T15:01:06;31.67;;;5.40;;
58516;SDS011;44308;50.810;0.284;2022-10-22T15:03:33;19.60;;;4.53;;
58516;SDS011;44308;50.810;0.284;2022-10-22T15:06:00;16.67;;;4.63;;
58516;SDS011;44308;50.810;0.284;2022-10-22T15:08:26;19.05;;;4.70;;
58516;SDS011;44308;50.810;0.284;2022-10-22T15:10:56;16.33;;;4.85;;
58516;SDS011;44308;50.810;0.284;2022-10-22T15:13:22;11.52;;;4.18;;
58516;SDS011;44308;50.810;0.284;2022-10-22T15:15:48;10.82;;;3.70;;
58516;SDS011;44308;50.810;0.284;2022-10-22T15:18:14;15.73;;;4.28;;
58516;SDS011;44308;50.810;0.284;2022-10-22T15:20:39;25.63;;;4.18;;
58516;SDS011;44308;50.810;0.284;2022-10-22T15:23:05;18.77;;;4.75;;
58516;SDS011;44308;50.810;0.284;2022-10-22T15:25:31;21.00;;;5.05;;
58516;SDS011;44308;50.810;0.284;2022-10-22T15:27:57;17.88;;;4.72;;
58516;SDS011;44308;50.810;0.284;2022-10-22T15:30:22;13.52;;;3.95;;
58516;SDS011;44308;50.810;0.284;2022-10-22T15:32:48;15.25;;;4.47;;
58516;SDS011;44308;50.810;0.284;2022-10-22T15:35:14;13.60;;;3.97;;
58516;SDS011;44308;50.810;0.284;2022-10-22T15:37:39;18.15;;;4.10;;
58516;SDS011;44308;50.810;0.284;2022-10-22T15:40:05;18.63;;;4.82;;
58516;SDS011;44308;50.810;0.284;2022-10-22T15:42:32;17.42;;;4.63;;
58516;SDS011;44308;50.810;0.284;2022-10-22T15:44:58;16.65;;;4.15;;
58516;SDS011;44308;50.810;0.284;2022-10-22T15:47:24;15.00;;;4.28;;
58516;SDS011;44308;50.810;0.284;2022-10-22T15:49:52;20.55;;;3.53;;
58516;SDS011;44308;50.810;0.284;2022-10-22T15:52:18;20.40;;;4.50;;
58516;SDS011;44308;50.810;0.284;2022-10-22T15:54:45;20.70;;;4.03;;
58516;SDS011;44308;50.810;0.284;2022-10-22T15:57:11;13.43;;;4.28;;
58516;SDS011;44308;50.810;0.284;2022-10-22T15:59:37;14.52;;;4.80;;
58516;SDS011;44308;50.810;0.284;2022-10-22T16:02:03;16.50;;;4.35;;
58516;SDS011;44308;50.810;0.284;2022-10-22T16:04:29;19.60;;;4.80;;
58516;SDS011;44308;50.810;0.284;2022-10-22T16:06:55;16.73;;;4.07;;
58516;SDS011;44308;50.810;0.284;2022-10-22T16:09:22;9.52;;;3.47;;
58516;SDS011;44308;50.810;0.284;2022-10-22T16:11:49;21.95;;;3.80;;
58516;SDS011;44308;50.810;0.284;2022-10-22T16:14:16;19.27;;;4.25;;
58516;SDS011;44308;50.810;0.284;2022-10-22T16:16:45;15.82;;;4.68;;
58516;SDS011;44308;50.810;0.284;2022-10-22T16:19:12;17.30;;;4.13;;
58516;SDS011;44308;50.810;0.284;2022-10-22T16:21:40;15.15;;;4.03;;
58516;SDS011;44308;50.810;0.284;2022-10-22T16:24:06;11.05;;;3.50;;
58516;SDS011;44308;50.810;0.284;2022-10-22T16:26:33;17.20;;;4.85;;
58516;SDS011;44308;50.810;0.284;2022-10-22T16:28:59;19.95;;;4.90;;